Time;durP1;ratioP1;P1;durP2;ratioP2;P2;SDS_P1;SDS_P2;PMS_P1;PMS_P2;Temp;Humidity;BMP_temperature;BMP_pressure;BME280_temperature;BME280_humidity;BME280_pressure;Samples;Min_cycle;Max_cycle;Signal;HPM_P1;HPM_P2
2021/09/27 00:01:05;;;;;;;33.25;13.57;;;461.20;2380.80;;;;;;4888066;29;20021;-82
2021/09/27 00:03:31;;;;;;;28.55;13.18;;;461.10;2380.80;;;;;;4866950;29;20016;-81
2021/09/27 00:05:57;;;;;;;25.75;13.95;;;461.10;2380.80;;;;;;4872878;29;20433;-82
2021/09/27 00:08:24;;;;;;;32.85;12.90;;;461.10;2380.80;;;;;;4874645;29;20024;-79
2021/09/27 00:10:54;;;;;;;29.48;12.85;;;461.00;2380.80;;;;;;4888061;29;20036;-81
2021/09/27 00:13:21;;;;;;;23.85;12.43;;;461.10;2380.80;;;;;;4866029;29;20472;-81
2021/09/27 00:15:52;;;;;;;22.83;13.70;;;461.20;2380.80;;;;;;4872134;29;20036;-82
2021/09/27 00:18:18;;;;;;;22.95;13.50;;;461.30;2380.80;;;;;;4865853;29;20030;-80
2021/09/27 00:20:48;;;;;;;30.83;12.63;;;461.30;2380.80;;;;;;4869154;29;20492;-83
2021/09/27 00:23:16;;;;;;;27.52;13.43;;;461.30;2380.80;;;;;;4871177;29;20029;-83
2021/09/27 00:25:42;;;;;;;23.80;13.45;;;461.40;2380.80;;;;;;4871459;29;20085;-80
2021/09/27 00:28:09;;;;;;;22.80;13.43;;;461.30;2380.80;;;;;;4870724;29;20028;-82
2021/09/27 00:30:35;;;;;;;25.20;12.88;;;461.40;2380.80;;;;;;4870578;29;20021;-83
2021/09/27 00:33:02;;;;;;;25.05;13.85;;;461.50;2380.80;;;;;;4868806;29;20029;-82
2021/09/27 00:35:31;;;;;;;32.45;12.95;;;461.50;2380.80;;;;;;4871017;29;20041;-82
2021/09/27 00:37:57;;;;;;;28.83;13.05;;;461.70;2380.80;;;;;;4870549;29;20089;-83
2021/09/27 00:40:35;;;;;;;25.33;12.57;;;461.70;2380.80;;;;;;4868919;29;20022;-82
2021/09/27 00:43:01;;;;;;;27.05;12.60;;;486.40;2380.80;;;;;;4868801;29;20034;-81
2021/09/27 00:45:32;;;;;;;21.58;12.38;;;486.50;2380.80;;;;;;4869360;29;20032;-80
2021/09/27 00:47:58;;;;;;;29.33;12.48;;;486.50;2380.80;;;;;;4870174;29;20029;-81
2021/09/27 00:50:27;;;;;;;23.80;12.43;;;486.60;2380.80;;;;;;4867291;29;20017;-80
2021/09/27 00:52:54;;;;;;;26.48;12.82;;;486.70;2380.80;;;;;;4869797;29;20093;-79
2021/09/27 00:55:22;;;;;;;27.95;12.57;;;486.60;2380.80;;;;;;4870902;29;20060;-83
2021/09/27 00:57:48;;;;;;;26.70;12.68;;;486.70;2380.80;;;;;;4881823;29;20112;-80
2021/09/27 01:00:17;;;;;;;26.67;12.88;;;486.80;2380.80;;;;;;4870914;29;20021;-82
2021/09/27 01:02:44;;;;;;;19.67;11.88;;;486.70;2380.80;;;;;;4871720;29;20026;-81
2021/09/27 01:05:13;;;;;;;18.92;12.32;;;486.80;2380.80;;;;;;4870353;29;20123;-81
2021/09/27 01:08:05;;;;;;;25.88;13.65;;;486.90;2380.80;;;;;;4864205;29;20371;-81
2021/09/27 01:11:01;;;;;;;22.80;13.55;;;487.00;2380.80;;;;;;4860272;29;20043;-81
2021/09/27 01:13:43;;;;;;;25.90;13.73;;;486.90;2380.80;;;;;;4869817;29;20209;-80
2021/09/27 01:16:15;;;;;;;22.63;13.02;;;486.80;2380.80;;;;;;4867767;29;20292;-82
2021/09/27 01:18:46;;;;;;;23.92;13.82;;;486.70;2380.80;;;;;;4868367;29;20021;-82
2021/09/27 01:21:21;;;;;;;27.35;12.88;;;486.70;2380.80;;;;;;4862930;29;20037;-82
2021/09/27 01:23:56;;;;;;;24.60;12.57;;;486.60;2380.80;;;;;;4870580;29;20029;-81
2021/09/27 01:26:24;;;;;;;24.65;12.82;;;486.60;2380.80;;;;;;4871162;29;20031;-81
2021/09/27 01:29:22;;;;;;;20.70;12.93;;;486.60;2380.80;;;;;;4866607;29;20089;-79
2021/09/27 01:32:06;;;;;;;;;;;486.60;2380.80;;;;;;4868405;29;20021;-80
2021/09/27 01:34:53;;;;;;;25.77;12.68;;;486.40;2380.80;;;;;;4881552;29;19908;-82
2021/09/27 01:37:37;;;;;;;26.30;14.18;;;461.70;2380.80;;;;;;4868983;29;20037;-81
2021/09/27 01:40:17;;;;;;;19.92;13.93;;;461.70;2380.80;;;;;;4884529;29;20067;-83
2021/09/27 01:43:01;;;;;;;27.45;13.00;;;461.60;2380.80;;;;;;4870114;29;20040;-80
2021/09/27 01:45:40;;;;;;;26.40;13.10;;;461.50;2380.80;;;;;;4884641;29;20067;-79
2021/09/27 01:48:11;;;;;;;32.08;13.43;;;461.50;2380.80;;;;;;4869764;29;20538;-82
2021/09/27 01:51:12;;;;;;;29.80;13.60;;;461.40;2380.80;;;;;;4866429;29;20497;-82
2021/09/27 01:54:05;;;;;;;23.23;12.18;;;461.40;2380.80;;;;;;4812265;29;20033;-82
2021/09/27 01:56:31;;;;;;;22.65;13.35;;;461.50;2380.80;;;;;;4810974;29;20057;-79
2021/09/27 01:59:16;;;;;;;42.40;13.55;;;461.50;2380.80;;;;;;4803685;29;20027;-82
2021/09/27 02:02:00;;;;;;;33.17;14.50;;;461.40;2380.80;;;;;;4814830;29;20086;-81
2021/09/27 02:04:45;;;;;;;22.80;13.68;;;461.20;2380.80;;;;;;4811133;29;20033;-82
2021/09/27 02:07:12;;;;;;;29.05;14.98;;;461.30;2380.80;;;;;;4811592;29;20035;-82
2021/09/27 02:10:20;;;;;;;26.83;13.95;;;461.40;2380.80;;;;;;4797069;29;20026;-80
2021/09/27 02:12:54;;;;;;;23.73;14.93;;;461.30;2380.80;;;;;;4810847;29;20053;-82
2021/09/27 02:15:30;;;;;;;22.80;12.50;;;461.30;2380.80;;;;;;4812244;29;20080;-81
2021/09/27 02:18:19;;;;;;;22.83;12.32;;;461.10;2380.80;;;;;;4813383;29;20515;-81
2021/09/27 02:20:52;;;;;;;22.92;12.82;;;461.20;2380.80;;;;;;4803551;29;20050;-81
2021/09/27 02:23:30;;;;;;;27.13;12.85;;;461.20;2380.80;;;;;;4788226;29;20043;-82
2021/09/27 02:25:56;;;;;;;30.20;13.32;;;461.10;2380.80;;;;;;4803048;29;20570;-81
2021/09/27 02:28:24;;;;;;;22.55;12.23;;;461.20;2380.80;;;;;;4845446;29;20073;-81
2021/09/27 02:31:09;;;;;;;26.85;12.55;;;461.20;2380.80;;;;;;4858938;29;20082;-81
2021/09/27 02:33:44;;;;;;;18.83;12.07;;;461.30;2380.80;;;;;;4860442;29;20029;-82
2021/09/27 02:36:24;;;;;;;24.13;12.30;;;461.40;2380.80;;;;;;4866600;29;20285;-81
2021/09/27 02:38:59;;;;;;;24.20;12.15;;;461.60;2380.80;;;;;;4866453;29;20393;-81
2021/09/27 02:41:42;;;;;;;25.40;11.98;;;461.60;2380.80;;;;;;4869086;29;20427;-80
2021/09/27 02:44:08;;;;;;;17.20;11.73;;;461.50;2380.80;;;;;;4866911;29;20128;-81
2021/09/27 02:46:41;;;;;;;22.20;11.48;;;461.50;2380.80;;;;;;4868295;29;20141;-81
2021/09/27 02:49:11;;;;;;;18.85;11.02;;;461.50;2380.80;;;;;;4866443;29;20076;-81
2021/09/27 02:51:42;;;;;;;28.10;12.52;;;461.50;2380.80;;;;;;4880977;29;20029;-80
2021/09/27 02:54:09;;;;;;;23.83;11.98;;;461.50;2380.80;;;;;;4865891;29;20093;-81
2021/09/27 02:56:54;;;;;;;20.92;11.30;;;461.50;2380.80;;;;;;4868340;29;20559;-81
2021/09/27 02:59:45;;;;;;;21.17;12.15;;;461.50;2380.80;;;;;;4863636;29;20124;-81
2021/09/27 03:02:41;;;;;;;24.35;11.52;;;461.60;2380.80;;;;;;4868866;29;20064;-82
2021/09/27 03:05:29;;;;;;;18.75;10.23;;;461.50;2380.80;;;;;;4839723;29;20041;-78
2021/09/27 03:08:13;;;;;;;22.42;11.52;;;461.30;2380.80;;;;;;4867431;29;20112;-78
2021/09/27 03:11:01;;;;;;;21.45;10.82;;;461.30;2380.80;;;;;;4869175;29;20518;-82
2021/09/27 03:13:48;;;;;;;22.63;11.32;;;461.20;2380.80;;;;;;4869461;29;20406;-82
2021/09/27 03:16:23;;;;;;;19.52;11.02;;;461.00;2380.80;;;;;;4882354;29;20060;-81
2021/09/27 03:18:52;;;;;;;19.38;10.43;;;461.00;2380.80;;;;;;4886468;29;20016;-81
2021/09/27 03:21:46;;;;;;;19.23;10.43;;;461.10;2380.80;;;;;;4887976;29;20033;-78
2021/09/27 03:24:28;;;;;;;22.20;10.75;;;461.10;2380.80;;;;;;4884565;29;20485;-81
2021/09/27 03:27:13;;;;;;;33.50;10.20;;;461.20;2380.80;;;;;;4869604;29;20064;-82
2021/09/27 03:29:47;;;;;;;27.50;9.95;;;461.10;2380.80;;;;;;4887795;29;20025;-82
2021/09/27 03:32:38;;;;;;;17.40;10.77;;;461.10;2380.80;;;;;;4869331;29;20036;-81
2021/09/27 03:35:09;;;;;;;25.77;11.98;;;461.10;2380.80;;;;;;4886579;29;20029;-78
2021/09/27 03:37:43;;;;;;;16.27;10.25;;;461.10;2380.80;;;;;;4868802;29;20036;-79
2021/09/27 03:40:41;;;;;;;19.17;11.70;;;461.00;2380.80;;;;;;4885597;29;20097;-78
2021/09/27 03:43:34;;;;;;;16.48;10.05;;;461.10;2380.80;;;;;;4887638;29;20029;-80
2021/09/27 03:46:17;;;;;;;20.52;10.52;;;461.00;2380.80;;;;;;4883987;29;20541;-80
2021/09/27 03:49:08;;;;;;;26.92;10.48;;;461.00;2380.80;;;;;;4868852;29;20047;-82
2021/09/27 03:51:59;;;;;;;24.90;10.55;;;461.00;2380.80;;;;;;4873612;29;20038;-80
2021/09/27 03:54:35;;;;;;;21.33;11.82;;;461.00;2380.80;;;;;;4891497;29;20016;-80
2021/09/27 03:57:12;;;;;;;23.00;9.60;;;461.00;2380.80;;;;;;4875306;29;20132;-83
2021/09/27 04:00:00;;;;;;;24.65;10.07;;;460.80;2380.80;;;;;;4891316;29;20021;-80
2021/09/27 04:02:43;;;;;;;23.00;10.13;;;460.80;2380.80;;;;;;4871743;29;20036;-79
2021/09/27 04:05:11;;;;;;;21.85;8.95;;;460.80;2380.80;;;;;;4875079;29;20032;-84
2021/09/27 04:07:56;;;;;;;18.15;8.82;;;460.80;2380.80;;;;;;4889496;29;20028;-81
2021/09/27 04:10:36;;;;;;;18.33;9.00;;;460.80;2380.80;;;;;;4866345;29;20041;-79
2021/09/27 04:13:25;;;;;;;15.32;7.95;;;460.80;2380.80;;;;;;4878403;29;20056;-83
2021/09/27 04:16:15;;;;;;;15.63;8.82;;;436.10;2355.20;;;;;;4866287;29;20049;-80
2021/09/27 04:19:02;;;;;;;17.13;8.77;;;435.90;2355.20;;;;;;4867212;29;20030;-81
2021/09/27 04:21:59;;;;;;;15.65;8.43;;;436.00;2355.20;;;;;;4855747;29;20025;-81
2021/09/27 04:24:47;;;;;;;14.63;8.32;;;436.00;2355.20;;;;;;4870481;29;20065;-82
2021/09/27 04:27:48;;;;;;;13.45;7.97;;;436.10;2355.20;;;;;;4865356;29;20029;-82
2021/09/27 04:30:29;;;;;;;15.43;7.80;;;460.80;2380.80;;;;;;4870219;29;20108;-78
2021/09/27 04:33:01;;;;;;;12.10;7.68;;;460.80;2380.80;;;;;;4869550;29;20025;-78
2021/09/27 04:35:29;;;;;;;12.30;8.23;;;436.10;2355.20;;;;;;4869486;29;20120;-79
2021/09/27 04:37:55;;;;;;;15.15;8.95;;;436.10;2355.20;;;;;;4871137;29;20032;-81
2021/09/27 04:40:56;;;;;;;16.35;8.55;;;436.00;2355.20;;;;;;4867393;29;20037;-80
2021/09/27 04:43:48;;;;;;;15.48;7.80;;;435.90;2355.20;;;;;;4861430;29;20044;-79
2021/09/27 04:46:33;;;;;;;18.08;8.05;;;436.10;2355.20;;;;;;4854313;29;20040;-80
2021/09/27 04:49:16;;;;;;;16.42;8.07;;;436.10;2355.20;;;;;;4860188;29;20378;-78
2021/09/27 04:52:32;;;;;;;17.92;8.43;;;436.10;2355.20;;;;;;4844943;29;20503;-78
2021/09/27 04:55:22;;;;;;;18.70;9.60;;;436.10;2355.20;;;;;;4839413;29;20034;-80
2021/09/27 04:58:11;;;;;;;14.82;7.78;;;436.10;2355.20;;;;;;4819407;29;20041;-80
2021/09/27 05:01:12;;;;;;;13.77;8.05;;;436.10;2355.20;;;;;;4820212;29;20030;-79
2021/09/27 05:03:59;;;;;;;21.25;7.55;;;436.10;2355.20;;;;;;4822475;29;20442;-80
2021/09/27 05:06:49;;;;;;;57.88;14.43;;;436.10;2355.20;;;;;;4820572;29;20034;-78
2021/09/27 05:09:14;;;;;;;14.95;7.13;;;460.80;2380.80;;;;;;4818642;29;20038;-79
2021/09/27 05:11:56;;;;;;;14.15;6.80;;;436.10;2355.20;;;;;;4830742;29;20100;-81
2021/09/27 05:14:33;;;;;;;17.45;8.00;;;436.10;2355.20;;;;;;4836321;29;20054;-80
2021/09/27 05:17:17;;;;;;;17.85;8.45;;;460.90;2380.80;;;;;;4828982;29;20492;-79
2021/09/27 05:19:57;;;;;;;14.13;7.35;;;461.20;2380.80;;;;;;4825996;29;20022;-78
2021/09/27 05:22:40;;;;;;;16.10;7.72;;;461.60;2380.80;;;;;;4822211;29;20069;-78
2021/09/27 05:25:24;;;;;;;12.80;6.72;;;461.50;2380.80;;;;;;4822258;29;20063;-77
2021/09/27 05:27:55;;;;;;;13.57;6.95;;;461.50;2380.80;;;;;;4824916;29;20027;-78
2021/09/27 05:30:46;;;;;;;15.48;8.15;;;461.70;2380.80;;;;;;4863945;29;20025;-77
2021/09/27 05:33:35;;;;;;;16.35;9.98;;;461.70;2380.80;;;;;;4866300;29;20033;-79
2021/09/27 05:36:38;;;;;;;15.15;9.20;;;486.40;2380.80;;;;;;4844166;29;20037;-75
2021/09/27 05:39:20;;;;;;;15.35;9.77;;;486.50;2380.80;;;;;;4860917;29;20026;-80
2021/09/27 05:42:09;;;;;;;17.42;10.48;;;486.60;2380.80;;;;;;4859217;29;20046;-78
2021/09/27 05:44:43;;;;;;;18.27;11.02;;;486.70;2380.80;;;;;;4860506;29;20838;-76
2021/09/27 05:47:35;;;;;;;32.45;21.90;;;486.70;2380.80;;;;;;4860465;29;20030;-77
2021/09/27 05:50:05;;;;;;;34.10;22.20;;;486.70;2380.80;;;;;;4785680;29;20043;-77
2021/09/27 05:52:45;;;;;;;31.15;21.17;;;486.70;2380.80;;;;;;4785485;29;20055;-78
2021/09/27 05:55:48;;;;;;;33.28;19.60;;;486.80;2380.80;;;;;;4785755;29;20031;-76
2021/09/27 05:59:03;;;;;;;22.05;12.90;;;486.90;2380.80;;;;;;4785811;29;20031;-79
2021/09/27 06:02:01;;;;;;;24.13;12.63;;;486.90;2380.80;;;;;;4785927;29;20038;-78
2021/09/27 06:04:31;;;;;;;15.25;10.25;;;487.00;2380.80;;;;;;4776300;29;20492;-82
2021/09/27 06:07:09;;;;;;;26.10;10.35;;;487.10;2380.80;;;;;;4788854;29;20595;-79
2021/09/27 06:09:44;;;;;;;18.15;9.52;;;487.20;2380.80;;;;;;4785502;29;20145;-80
2021/09/27 06:12:10;;;;;;;16.88;9.35;;;487.30;2380.80;;;;;;4782835;29;20049;-78
2021/09/27 06:14:36;;;;;;;18.77;8.50;;;487.30;2355.20;;;;;;4808326;29;20043;-79
2021/09/27 06:17:45;;;;;;;16.90;7.72;;;512.00;2355.20;;;;;;4811531;29;20042;-78
2021/09/27 06:20:18;;;;;;;15.95;7.60;;;512.00;2304.00;;;;;;4731634;30;20048;-80
2021/09/27 06:22:58;;;;;;;26.02;13.05;;;512.10;2304.00;;;;;;4717572;30;20556;-80
2021/09/27 06:25:50;;;;;;;10.23;7.03;;;512.30;2304.00;;;;;;4716738;30;20040;-78
2021/09/27 06:28:28;;;;;;;24.33;12.88;;;512.40;2278.40;;;;;;4776038;30;20028;-78
2021/09/27 06:31:07;;;;;;;40.97;19.45;;;512.50;2278.40;;;;;;4760687;30;20038;-80
2021/09/27 06:33:53;;;;;;;10.90;6.63;;;512.60;2252.80;;;;;;4769902;30;20027;-79
2021/09/27 06:36:25;;;;;;;25.13;12.68;;;512.60;2201.60;;;;;;4767162;30;20040;-79
2021/09/27 06:38:57;;;;;;;41.97;21.02;;;512.70;2227.20;;;;;;4767412;30;20028;-79
2021/09/27 06:41:25;;;;;;;19.02;6.90;;;512.80;2227.20;;;;;;4752154;30;20032;-79
2021/09/27 06:43:51;;;;;;;14.13;7.15;;;512.80;2252.80;;;;;;4770825;30;20062;-81
2021/09/27 06:46:19;;;;;;;31.50;15.73;;;512.80;2252.80;;;;;;4782115;30;20546;-78
2021/09/27 06:48:48;;;;;;;13.27;6.78;;;512.90;2201.60;;;;;;4783017;30;20122;-77
2021/09/27 06:51:14;;;;;;;12.48;6.45;;;512.80;2201.60;;;;;;4752415;30;20570;-81
2021/09/27 06:53:40;;;;;;;10.00;6.70;;;512.80;2227.20;;;;;;4779676;30;20051;-79
2021/09/27 06:56:05;;;;;;;62.05;31.48;;;512.90;2201.60;;;;;;4771577;29;20043;-81
2021/09/27 06:58:32;;;;;;;104.10;53.83;;;537.70;2201.60;;;;;;4853300;29;20021;-79
2021/09/27 07:00:59;;;;;;;50.75;26.77;;;537.70;2252.80;;;;;;4859992;29;20077;-77
2021/09/27 07:03:25;;;;;;;20.38;8.02;;;537.70;2278.40;;;;;;4859749;29;20026;-79
2021/09/27 07:05:51;;;;;;;16.35;6.25;;;537.70;2304.00;;;;;;4859974;29;20089;-78
2021/09/27 07:08:18;;;;;;;10.35;6.13;;;537.60;2278.40;;;;;;4859794;29;20033;-78
2021/09/27 07:10:45;;;;;;;13.23;6.50;;;537.60;2278.40;;;;;;4843197;29;20082;-79
2021/09/27 07:13:12;;;;;;;12.20;6.07;;;537.70;2278.40;;;;;;4843079;29;20148;-81
2021/09/27 07:15:38;;;;;;;10.82;5.80;;;537.70;2252.80;;;;;;4842961;29;20037;-81
2021/09/27 07:18:04;;;;;;;20.25;6.95;;;537.80;2252.80;;;;;;4842967;29;20033;-81
2021/09/27 07:20:30;;;;;;;15.57;6.90;;;537.90;2252.80;;;;;;4843329;29;20109;-87
2021/09/27 07:22:57;;;;;;;32.83;16.50;;;537.90;2278.40;;;;;;4860184;29;20112;-82
2021/09/27 07:25:26;;;;;;;159.45;83.75;;;538.00;2278.40;;;;;;4851283;29;20500;-81
2021/09/27 07:27:53;;;;;;;121.63;60.90;;;538.10;2278.40;;;;;;4870710;29;20377;-86
2021/09/27 07:30:19;;;;;;;173.40;87.45;;;538.20;2304.00;;;;;;4847020;29;20031;-85
2021/09/27 07:32:46;;;;;;;104.43;52.03;;;538.30;2329.60;;;;;;4847155;29;20040;-84
2021/09/27 07:35:15;;;;;;;76.32;34.20;;;538.30;2355.20;;;;;;4859481;29;20112;-86
2021/09/27 07:37:41;;;;;;;43.47;22.30;;;538.30;2355.20;;;;;;4863214;29;20041;-82
2021/09/27 07:40:10;;;;;;;67.88;31.70;;;538.40;2380.80;;;;;;4846758;29;20483;-79
2021/09/27 07:42:36;;;;;;;59.88;27.77;;;538.30;2380.80;;;;;;4845346;29;20046;-82
2021/09/27 07:45:05;;;;;;;46.17;23.83;;;538.30;2406.40;;;;;;4863139;29;20041;-83
2021/09/27 07:47:30;;;;;;;31.48;14.65;;;538.30;2406.40;;;;;;4852092;29;20033;-82
2021/09/27 07:49:56;;;;;;;40.20;18.25;;;538.30;2355.20;;;;;;4852998;29;20041;-84
2021/09/27 07:52:22;;;;;;;88.18;23.38;;;538.40;2406.40;;;;;;4858422;29;20046;-83
2021/09/27 07:54:47;;;;;;;36.83;18.00;;;538.40;2406.40;;;;;;4846583;29;20497;-79
2021/09/27 07:57:14;;;;;;;26.98;11.70;;;538.30;2406.40;;;;;;4862550;29;20048;-83
2021/09/27 07:59:40;;;;;;;21.80;10.43;;;538.30;2406.40;;;;;;4846055;29;20472;-83
2021/09/27 08:02:06;;;;;;;18.42;10.05;;;538.30;2406.40;;;;;;4846421;29;20057;-82
2021/09/27 08:04:34;;;;;;;599.22;323.73;;;538.30;2406.40;;;;;;4862929;29;20029;-86
2021/09/27 08:06:59;;;;;;;1999.90;997.45;;;538.50;2380.80;;;;;;4862859;29;20604;-79
2021/09/27 08:09:25;;;;;;;1999.90;904.58;;;538.40;2406.40;;;;;;4845514;29;20108;-79
2021/09/27 08:11:51;;;;;;;103.70;62.75;;;538.50;2406.40;;;;;;4845898;29;20027;-80
2021/09/27 08:14:17;;;;;;;173.32;78.47;;;538.40;2406.40;;;;;;4845584;29;20065;-81
2021/09/27 08:16:43;;;;;;;18.77;9.18;;;538.50;2406.40;;;;;;4867470;29;20129;-78
2021/09/27 08:19:09;;;;;;;12.80;7.45;;;538.50;2329.60;;;;;;4862149;29;20025;-84
2021/09/27 08:21:35;;;;;;;11.10;6.18;;;563.20;2304.00;;;;;;4845968;29;20065;-83
2021/09/27 08:24:00;;;;;;;16.02;7.45;;;563.20;2278.40;;;;;;4848862;29;20093;-79
2021/09/27 08:26:27;;;;;;;14.35;7.32;;;563.30;2278.40;;;;;;4865376;29;20089;-82
2021/09/27 08:28:52;;;;;;;26.60;11.57;;;563.30;2278.40;;;;;;4862246;29;20021;-79
2021/09/27 08:31:21;;;;;;;33.38;13.55;;;563.30;2252.80;;;;;;4861766;29;20026;-78
2021/09/27 08:33:50;;;;;;;45.63;20.88;;;563.40;2278.40;;;;;;4846016;29;20116;-84
2021/09/27 08:36:19;;;;;;;29.52;15.82;;;563.40;2304.00;;;;;;4845012;29;20041;-87
2021/09/27 08:38:45;;;;;;;22.52;12.52;;;563.50;2329.60;;;;;;4845872;29;20026;-83
2021/09/27 08:41:36;;;;;;;51.80;28.92;;;563.40;2304.00;;;;;;4854421;29;20045;-84
2021/09/27 08:44:23;;;;;;;74.18;36.60;;;563.60;2304.00;;;;;;4869303;29;20030;-83
2021/09/27 08:47:04;;;;;;;62.42;31.35;;;563.60;2355.20;;;;;;4870767;29;20052;-84
2021/09/27 08:49:51;;;;;;;42.10;19.60;;;563.60;2380.80;;;;;;4872573;29;20026;-81
2021/09/27 08:52:19;;;;;;;29.40;10.23;;;563.70;2380.80;;;;;;4868332;29;20049;-85
2021/09/27 08:54:48;;;;;;;43.47;19.13;;;563.80;2355.20;;;;;;4862279;29;20044;-84
2021/09/27 08:57:43;;;;;;;23.15;11.40;;;563.90;2380.80;;;;;;4866839;29;20088;-83
2021/09/27 09:00:13;;;;;;;15.10;8.50;;;564.00;2380.80;;;;;;4865545;29;20064;-88
2021/09/27 09:02:58;;;;;;;16.77;8.60;;;564.00;2380.80;;;;;;4852111;29;20041;-83
2021/09/27 09:05:36;;;;;;;20.95;9.60;;;564.10;2406.40;;;;;;4861262;29;20040;-83
2021/09/27 09:08:17;;;;;;;19.77;11.40;;;588.90;2406.40;;;;;;4867306;29;20037;-82
2021/09/27 09:10:58;;;;;;;34.78;19.38;;;589.10;2380.80;;;;;;4865573;29;20037;-80
2021/09/27 09:13:32;;;;;;;24.40;11.35;;;589.20;2355.20;;;;;;4868333;29;20064;-82
2021/09/27 09:16:05;;;;;;;19.60;11.63;;;589.40;2252.80;;;;;;4878939;29;20483;-88
2021/09/27 09:18:46;;;;;;;19.10;8.65;;;589.60;2201.60;;;;;;4862485;29;20362;-86
2021/09/27 09:21:19;;;;;;;19.95;9.25;;;589.70;2124.80;;;;;;4877864;29;20072;-88
2021/09/27 09:23:51;;;;;;;17.00;9.02;;;614.40;2176.00;;;;;;4862954;29;20041;-81
2021/09/27 09:26:26;;;;;;;18.00;9.43;;;614.60;2227.20;;;;;;4880563;29;20032;-85
2021/09/27 09:28:55;;;;;;;12.90;8.10;;;614.80;2099.20;;;;;;4880326;29;20025;-81
2021/09/27 09:31:34;;;;;;;18.75;8.18;;;614.90;2099.20;;;;;;4881895;29;20049;-86
2021/09/27 09:34:16;;;;;;;14.63;8.55;;;615.00;1971.20;;;;;;4885640;29;20119;-84
2021/09/27 09:36:42;;;;;;;17.02;8.40;;;615.20;1945.60;;;;;;4886537;29;20037;-83
2021/09/27 09:39:52;;;;;;;17.45;7.28;;;615.30;1971.20;;;;;;4885304;29;20148;-86
2021/09/27 09:42:18;;;;;;;12.85;7.93;;;640.00;1996.80;;;;;;4831267;29;20569;-83
2021/09/27 09:44:49;;;;;;;20.15;8.80;;;640.10;1971.20;;;;;;4822672;29;20085;-85
2021/09/27 09:47:24;;;;;;;13.55;7.45;;;640.30;1996.80;;;;;;4831489;29;20033;-81
2021/09/27 09:49:52;;;;;;;13.57;6.90;;;640.40;1945.60;;;;;;4833110;29;20523;-83
2021/09/27 09:52:43;;;;;;;11.70;7.35;;;640.50;1843.20;;;;;;4822694;29;20101;-76
2021/09/27 09:55:36;;;;;;;15.52;6.70;;;640.80;1843.20;;;;;;4775026;30;20036;-83
2021/09/27 09:58:04;;;;;;;9.32;5.60;;;640.90;1817.60;;;;;;4771295;30;20207;-82
2021/09/27 10:00:50;;;;;;;12.27;6.97;;;665.60;1766.40;;;;;;4784682;30;20043;-83
2021/09/27 10:03:20;;;;;;;10.55;6.00;;;665.90;1792.00;;;;;;4770443;30;20443;-83
2021/09/27 10:05:56;;;;;;;12.25;6.40;;;666.10;1740.80;;;;;;4772372;30;20036;-84
2021/09/27 10:08:26;;;;;;;11.60;6.53;;;666.20;1740.80;;;;;;4771522;30;20043;-76
2021/09/27 10:10:54;;;;;;;13.82;5.97;;;666.30;1715.20;;;;;;4767703;30;20031;-80
2021/09/27 10:13:28;;;;;;;8.80;5.80;;;666.50;1689.60;;;;;;4767962;30;20056;-85
2021/09/27 10:15:54;;;;;;;10.10;5.70;;;691.30;1664.00;;;;;;4784041;29;20062;-87
2021/09/27 10:18:31;;;;;;;12.50;4.97;;;691.60;1612.80;;;;;;4795406;29;20564;-82
2021/09/27 10:21:24;;;;;;;9.95;5.82;;;691.70;1638.40;;;;;;4807818;29;20147;-80
2021/09/27 10:23:54;;;;;;;10.32;5.40;;;691.90;1561.60;;;;;;4791772;29;20046;-80
2021/09/27 10:26:33;;;;;;;8.23;5.50;;;692.10;1536.00;;;;;;4803594;29;20134;-80
2021/09/27 10:29:08;;;;;;;13.40;6.32;;;716.80;1561.60;;;;;;4787940;29;20027;-77
2021/09/27 10:31:40;;;;;;;13.98;5.60;;;716.80;1587.20;;;;;;4824056;29;20532;-78
2021/09/27 10:34:14;;;;;;;12.60;5.40;;;716.90;1536.00;;;;;;4849865;29;20034;-81
2021/09/27 10:36:53;;;;;;;11.10;6.05;;;717.10;1536.00;;;;;;4869816;29;20036;-77
2021/09/27 10:39:21;;;;;;;17.25;6.38;;;717.20;1510.40;;;;;;4863800;29;20033;-79
2021/09/27 10:42:12;;;;;;;14.52;5.50;;;717.50;1484.80;;;;;;4859362;29;20486;-81
2021/09/27 10:44:37;;;;;;;13.77;6.68;;;717.50;1510.40;;;;;;4858109;29;20025;-76
2021/09/27 10:47:17;;;;;;;13.95;6.22;;;717.70;1536.00;;;;;;4859207;29;20033;-80
2021/09/27 10:49:49;;;;;;;16.08;7.70;;;742.60;1536.00;;;;;;4858708;29;20062;-81
2021/09/27 10:52:21;;;;;;;23.30;7.97;;;742.80;1510.40;;;;;;4860127;29;20511;-83
2021/09/27 10:55:19;;;;;;;22.33;6.55;;;742.80;1510.40;;;;;;4859974;29;20061;-81
2021/09/27 10:58:00;;;;;;;13.77;6.60;;;743.00;1459.20;;;;;;4849981;29;20041;-82
2021/09/27 11:00:32;;;;;;;17.40;6.90;;;743.00;1484.80;;;;;;4863807;29;20490;-82
2021/09/27 11:03:35;;;;;;;19.75;6.85;;;743.00;1484.80;;;;;;4863379;29;20090;-82
2021/09/27 11:06:27;;;;;;;10.55;5.97;;;743.10;1510.40;;;;;;4861723;29;20038;-82
2021/09/27 11:09:28;;;;;;;11.45;5.50;;;743.30;1459.20;;;;;;4866274;29;20033;-84
2021/09/27 11:12:08;;;;;;;13.65;6.05;;;768.00;1408.00;;;;;;4878012;29;20367;-85
2021/09/27 11:14:38;;;;;;;11.05;6.45;;;743.20;1459.20;;;;;;4871557;29;20041;-77
2021/09/27 11:17:06;;;;;;;12.20;5.85;;;768.10;1408.00;;;;;;4865872;29;20482;-84
2021/09/27 11:19:32;;;;;;;12.43;5.75;;;768.20;1408.00;;;;;;4863926;29;20150;-86
2021/09/27 11:22:35;;;;;;;8.90;5.97;;;768.40;1408.00;;;;;;4864557;29;20101;-87
2021/09/27 11:25:06;;;;;;;16.33;6.25;;;768.50;1356.80;;;;;;4863858;29;20502;-84
2021/09/27 11:27:36;;;;;;;12.30;6.30;;;768.50;1408.00;;;;;;4863851;29;20029;-87
2021/09/27 11:30:22;;;;;;;24.90;10.23;;;768.50;1382.40;;;;;;4865496;29;20025;-79
2021/09/27 11:32:57;;;;;;;14.10;7.40;;;768.60;1408.00;;;;;;4872182;29;20450;-86
2021/09/27 11:35:42;;;;;;;16.55;6.90;;;768.50;1408.00;;;;;;4863296;29;20021;-83
2021/09/27 11:38:25;;;;;;;19.75;11.98;;;768.60;1408.00;;;;;;4876065;29;20040;-79
2021/09/27 11:40:59;;;;;;;21.48;10.43;;;768.80;1382.40;;;;;;4851825;29;20037;-77
2021/09/27 11:43:47;;;;;;;20.08;8.02;;;768.80;1382.40;;;;;;4863844;29;20112;-88
2021/09/27 11:46:29;;;;;;;16.27;8.20;;;768.90;1408.00;;;;;;4807316;29;20082;-87
2021/09/27 11:49:03;;;;;;;11.20;7.85;;;768.90;1382.40;;;;;;4819454;29;20043;-79
2021/09/27 11:51:38;;;;;;;24.17;14.95;;;793.70;1408.00;;;;;;4806996;29;20039;-82
2021/09/27 11:54:21;;;;;;;17.67;12.18;;;768.90;1433.60;;;;;;4806851;29;20031;-86
2021/09/27 11:57:21;;;;;;;20.10;8.50;;;768.90;1433.60;;;;;;4806620;29;20528;-90
2021/09/27 12:00:05;;;;;;;11.23;6.53;;;793.70;1433.60;;;;;;4805910;29;20023;-82
2021/09/27 12:02:57;;;;;;;15.23;7.55;;;793.70;1433.60;;;;;;4816810;29;20504;-82
2021/09/27 12:05:49;;;;;;;13.10;7.18;;;793.70;1408.00;;;;;;4805095;29;20134;-79
2021/09/27 12:08:26;;;;;;;18.45;7.53;;;793.80;1433.60;;;;;;4799245;29;20058;-82
2021/09/27 12:11:05;;;;;;;16.70;8.07;;;793.80;1408.00;;;;;;4804652;29;20511;-76
2021/09/27 12:13:44;;;;;;;19.48;9.00;;;793.80;1433.60;;;;;;4803557;29;20111;-80
2021/09/27 12:16:33;;;;;;;19.40;8.82;;;793.70;1459.20;;;;;;4803781;29;20496;-80
2021/09/27 12:19:22;;;;;;;59.33;38.72;;;793.70;1433.60;;;;;;4790408;29;20043;-82
2021/09/27 12:21:54;;;;;;;30.98;12.18;;;793.70;1408.00;;;;;;4803508;29;20062;-77
2021/09/27 12:24:24;;;;;;;14.50;8.25;;;793.60;1433.60;;;;;;4857259;29;20038;-82
2021/09/27 12:26:54;;;;;;;17.80;7.60;;;793.70;1408.00;;;;;;4862293;29;20036;-81
2021/09/27 12:29:26;;;;;;;19.42;9.40;;;793.70;1382.40;;;;;;4845784;29;20450;-87
2021/09/27 12:32:04;;;;;;;17.50;8.02;;;793.60;1433.60;;;;;;4862058;29;20025;-83
2021/09/27 12:35:02;;;;;;;17.23;11.05;;;793.60;1459.20;;;;;;4862162;29;20085;-83
2021/09/27 12:37:35;;;;;;;30.90;15.30;;;793.70;1459.20;;;;;;4817869;29;20054;-82
2021/09/27 12:40:01;;;;;;;19.33;11.00;;;793.70;1433.60;;;;;;4823060;29;20026;-78
2021/09/27 12:42:35;;;;;;;14.07;7.18;;;793.80;1459.20;;;;;;4823092;29;20563;-83
2021/09/27 12:45:23;;;;;;;15.75;7.70;;;793.70;1408.00;;;;;;4823191;29;20042;-82
2021/09/27 12:47:49;;;;;;;14.85;7.28;;;793.60;1459.20;;;;;;4812263;29;20091;-77
2021/09/27 12:50:23;;;;;;;15.95;8.00;;;768.90;1433.60;;;;;;4820649;29;20039;-81
2021/09/27 12:52:54;;;;;;;18.80;8.30;;;768.90;1433.60;;;;;;4822743;29;20027;-77